sensor_id;sensor_type;location;lat;lon;timestamp;pressure;altitude;pressure_sealevel;temperature
45850;BMP180;10739;52.198;20.908;2022-12-29T00:00:07;100076.00;;;8.90
45850;BMP180;10739;52.198;20.908;2022-12-29T00:02:54;100059.00;;;8.60
45850;BMP180;10739;52.198;20.908;2022-12-29T00:05:41;100073.00;;;8.90
45850;BMP180;10739;52.198;20.908;2022-12-29T00:08:28;100078.00;;;8.90
45850;BMP180;10739;52.198;20.908;2022-12-29T00:11:35;100058.00;;;9.40
45850;BMP180;10739;52.198;20.908;2022-12-29T00:14:22;100057.00;;;9.20
45850;BMP180;10739;52.198;20.908;2022-12-29T00:17:27;100063.00;;;9.20
45850;BMP180;10739;52.198;20.908;2022-12-29T00:20:13;100057.00;;;9.00
45850;BMP180;10739;52.198;20.908;2022-12-29T00:23:18;100056.00;;;9.30
45850;BMP180;10739;52.198;20.908;2022-12-29T00:26:23;100057.00;;;9.20
45850;BMP180;10739;52.198;20.908;2022-12-29T00:29:28;100060.00;;;9.10
45850;BMP180;10739;52.198;20.908;2022-12-29T00:32:33;100063.00;;;9.80
45850;BMP180;10739;52.198;20.908;2022-12-29T00:35:54;100066.00;;;9.50
45850;BMP180;10739;52.198;20.908;2022-12-29T00:38:51;100063.00;;;9.30
45850;BMP180;10739;52.198;20.908;2022-12-29T00:42:07;100064.00;;;9.10
45850;BMP180;10739;52.198;20.908;2022-12-29T00:45:12;100067.00;;;9.20
45850;BMP180;10739;52.198;20.908;2022-12-29T00:47:58;100077.00;;;8.80
45850;BMP180;10739;52.198;20.908;2022-12-29T00:50:44;100062.00;;;9.50
45850;BMP180;10739;52.198;20.908;2022-12-29T00:53:31;100057.00;;;9.20
45850;BMP180;10739;52.198;20.908;2022-12-29T00:56:17;100060.00;;;9.10
45850;BMP180;10739;52.198;20.908;2022-12-29T00:59:08;100059.00;;;9.50
45850;BMP180;10739;52.198;20.908;2022-12-29T01:01:56;100058.00;;;9.30
45850;BMP180;10739;52.198;20.908;2022-12-29T01:04:42;100050.00;;;8.90
45850;BMP180;10739;52.198;20.908;2022-12-29T01:07:29;100048.00;;;9.40
45850;BMP180;10739;52.198;20.908;2022-12-29T01:10:15;100038.00;;;9.10
45850;BMP180;10739;52.198;20.908;2022-12-29T01:13:01;100040.00;;;9.30
45850;BMP180;10739;52.198;20.908;2022-12-29T01:15:52;100040.00;;;9.70
45850;BMP180;10739;52.198;20.908;2022-12-29T01:18:38;100035.00;;;9.50
45850;BMP180;10739;52.198;20.908;2022-12-29T01:21:25;100028.00;;;9.70
45850;BMP180;10739;52.198;20.908;2022-12-29T01:24:12;100024.00;;;9.20
45850;BMP180;10739;52.198;20.908;2022-12-29T01:26:59;100030.00;;;9.20
45850;BMP180;10739;52.198;20.908;2022-12-29T01:29:45;100020.00;;;9.00
45850;BMP180;10739;52.198;20.908;2022-12-29T01:32:32;100018.00;;;9.60
45850;BMP180;10739;52.198;20.908;2022-12-29T01:35:18;100016.00;;;9.10
45850;BMP180;10739;52.198;20.908;2022-12-29T01:38:05;100014.00;;;9.00
45850;BMP180;10739;52.198;20.908;2022-12-29T01:40:51;100005.00;;;9.30
45850;BMP180;10739;52.198;20.908;2022-12-29T01:43:51;100005.00;;;8.90
45850;BMP180;10739;52.198;20.908;2022-12-29T01:46:46;100003.00;;;9.10
45850;BMP180;10739;52.198;20.908;2022-12-29T01:49:35;100001.00;;;9.20
45850;BMP180;10739;52.198;20.908;2022-12-29T01:52:24;100008.00;;;9.50
45850;BMP180;10739;52.198;20.908;2022-12-29T01:55:13;99997.00;;;9.20
45850;BMP180;10739;52.198;20.908;2022-12-29T01:58:04;99991.00;;;9.30
45850;BMP180;10739;52.198;20.908;2022-12-29T02:00:52;99983.00;;;9.00
45850;BMP180;10739;52.198;20.908;2022-12-29T02:03:38;99999.00;;;8.70
45850;BMP180;10739;52.198;20.908;2022-12-29T02:07:17;99977.00;;;9.00
45850;BMP180;10739;52.198;20.908;2022-12-29T02:10:04;99968.00;;;9.20
45850;BMP180;10739;52.198;20.908;2022-12-29T02:12:52;99983.00;;;8.80
45850;BMP180;10739;52.198;20.908;2022-12-29T02:37:00;99999.00;;;8.10
45850;BMP180;10739;52.198;20.908;2022-12-29T02:40:40;99998.00;;;8.30
45850;BMP180;10739;52.198;20.908;2022-12-29T02:46:54;100000.00;;;8.50
45850;BMP180;10739;52.198;20.908;2022-12-29T02:49:46;100000.00;;;8.20
45850;BMP180;10739;52.198;20.908;2022-12-29T02:52:46;100004.00;;;8.00
45850;BMP180;10739;52.198;20.908;2022-12-29T02:55:35;100007.00;;;8.00
45850;BMP180;10739;52.198;20.908;2022-12-29T02:58:23;100003.00;;;7.90
45850;BMP180;10739;52.198;20.908;2022-12-29T03:04:47;100009.00;;;7.90
45850;BMP180;10739;52.198;20.908;2022-12-29T03:11:09;99996.00;;;7.80
45850;BMP180;10739;52.198;20.908;2022-12-29T03:14:54;100006.00;;;7.90
45850;BMP180;10739;52.198;20.908;2022-12-29T03:18:09;99992.00;;;7.90
45850;BMP180;10739;52.198;20.908;2022-12-29T03:24:36;99978.00;;;8.00
45850;BMP180;10739;52.198;20.908;2022-12-29T03:27:32;99968.00;;;8.40
45850;BMP180;10739;52.198;20.908;2022-12-29T03:30:20;99972.00;;;8.20
45850;BMP180;10739;52.198;20.908;2022-12-29T03:33:13;99963.00;;;8.10
45850;BMP180;10739;52.198;20.908;2022-12-29T03:36:07;99944.00;;;7.90
45850;BMP180;10739;52.198;20.908;2022-12-29T03:39:10;99923.00;;;7.60
45850;BMP180;10739;52.198;20.908;2022-12-29T03:42:21;99904.00;;;7.50
45850;BMP180;10739;52.198;20.908;2022-12-29T03:45:10;99929.00;;;7.40
45850;BMP180;10739;52.198;20.908;2022-12-29T03:47:57;99953.00;;;7.60
45850;BMP180;10739;52.198;20.908;2022-12-29T03:50:43;99948.00;;;7.50
45850;BMP180;10739;52.198;20.908;2022-12-29T03:53:30;99929.00;;;7.60
45850;BMP180;10739;52.198;20.908;2022-12-29T03:56:16;99922.00;;;7.40
45850;BMP180;10739;52.198;20.908;2022-12-29T03:59:02;99922.00;;;7.80
45850;BMP180;10739;52.198;20.908;2022-12-29T04:01:49;99925.00;;;7.70
45850;BMP180;10739;52.198;20.908;2022-12-29T04:04:35;99930.00;;;7.90
45850;BMP180;10739;52.198;20.908;2022-12-29T04:07:22;99919.00;;;7.70
45850;BMP180;10739;52.198;20.908;2022-12-29T04:10:08;99916.00;;;7.60
45850;BMP180;10739;52.198;20.908;2022-12-29T04:12:55;99906.00;;;7.90
45850;BMP180;10739;52.198;20.908;2022-12-29T04:15:43;99909.00;;;7.50
45850;BMP180;10739;52.198;20.908;2022-12-29T04:18:31;99924.00;;;7.90
45850;BMP180;10739;52.198;20.908;2022-12-29T04:21:17;99921.00;;;7.80
45850;BMP180;10739;52.198;20.908;2022-12-29T04:24:05;99920.00;;;8.00
45850;BMP180;10739;52.198;20.908;2022-12-29T04:26:54;99925.00;;;8.10
45850;BMP180;10739;52.198;20.908;2022-12-29T04:29:41;99915.00;;;8.00
45850;BMP180;10739;52.198;20.908;2022-12-29T04:32:27;99908.00;;;7.90
45850;BMP180;10739;52.198;20.908;2022-12-29T04:35:14;99891.00;;;7.60
45850;BMP180;10739;52.198;20.908;2022-12-29T04:38:01;99887.00;;;7.30
45850;BMP180;10739;52.198;20.908;2022-12-29T04:40:47;99906.00;;;7.30
45850;BMP180;10739;52.198;20.908;2022-12-29T04:43:34;99894.00;;;7.40
45850;BMP180;10739;52.198;20.908;2022-12-29T04:46:20;99894.00;;;7.20
45850;BMP180;10739;52.198;20.908;2022-12-29T04:49:06;99886.00;;;7.60
45850;BMP180;10739;52.198;20.908;2022-12-29T04:51:54;99894.00;;;8.00
45850;BMP180;10739;52.198;20.908;2022-12-29T04:54:41;99899.00;;;7.80
45850;BMP180;10739;52.198;20.908;2022-12-29T04:57:27;99875.00;;;7.50
45850;BMP180;10739;52.198;20.908;2022-12-29T05:00:14;99862.00;;;7.90
45850;BMP180;10739;52.198;20.908;2022-12-29T05:03:00;99875.00;;;7.30
45850;BMP180;10739;52.198;20.908;2022-12-29T05:05:47;99880.00;;;7.20
45850;BMP180;10739;52.198;20.908;2022-12-29T05:08:33;99869.00;;;7.60
45850;BMP180;10739;52.198;20.908;2022-12-29T05:11:20;99871.00;;;7.50
45850;BMP180;10739;52.198;20.908;2022-12-29T05:14:06;99864.00;;;7.90
45850;BMP180;10739;52.198;20.908;2022-12-29T05:16:52;99864.00;;;7.50
45850;BMP180;10739;52.198;20.908;2022-12-29T05:19:39;99882.00;;;7.60
45850;BMP180;10739;52.198;20.908;2022-12-29T05:22:25;99871.00;;;7.70
45850;BMP180;10739;52.198;20.908;2022-12-29T05:25:12;99863.00;;;7.90
45850;BMP180;10739;52.198;20.908;2022-12-29T05:27:58;99868.00;;;7.60
45850;BMP180;10739;52.198;20.908;2022-12-29T05:30:50;99855.00;;;7.60
45850;BMP180;10739;52.198;20.908;2022-12-29T05:33:37;99837.00;;;7.40
45850;BMP180;10739;52.198;20.908;2022-12-29T05:36:23;99839.00;;;7.50
45850;BMP180;10739;52.198;20.908;2022-12-29T05:39:10;99838.00;;;7.70
45850;BMP180;10739;52.198;20.908;2022-12-29T05:41:56;99834.00;;;7.40
45850;BMP180;10739;52.198;20.908;2022-12-29T05:44:42;99848.00;;;7.10
45850;BMP180;10739;52.198;20.908;2022-12-29T05:47:29;99834.00;;;7.60
45850;BMP180;10739;52.198;20.908;2022-12-29T05:50:15;99839.00;;;7.50
45850;BMP180;10739;52.198;20.908;2022-12-29T05:53:02;99834.00;;;7.70
45850;BMP180;10739;52.198;20.908;2022-12-29T05:55:49;99842.00;;;7.60
45850;BMP180;10739;52.198;20.908;2022-12-29T05:58:35;99844.00;;;7.40
45850;BMP180;10739;52.198;20.908;2022-12-29T06:01:22;99844.00;;;7.70
45850;BMP180;10739;52.198;20.908;2022-12-29T06:04:08;99837.00;;;7.70
45850;BMP180;10739;52.198;20.908;2022-12-29T06:06:54;99845.00;;;7.90
45850;BMP180;10739;52.198;20.908;2022-12-29T06:09:41;99833.00;;;8.30
45850;BMP180;10739;52.198;20.908;2022-12-29T06:12:27;99850.00;;;7.90
45850;BMP180;10739;52.198;20.908;2022-12-29T06:15:14;99846.00;;;7.70
45850;BMP180;10739;52.198;20.908;2022-12-29T06:18:00;99845.00;;;7.50
45850;BMP180;10739;52.198;20.908;2022-12-29T06:20:47;99839.00;;;7.60
45850;BMP180;10739;52.198;20.908;2022-12-29T06:23:33;99841.00;;;7.60
45850;BMP180;10739;52.198;20.908;2022-12-29T06:26:20;99831.00;;;7.70
45850;BMP180;10739;52.198;20.908;2022-12-29T06:29:07;99840.00;;;8.30
45850;BMP180;10739;52.198;20.908;2022-12-29T06:31:54;99838.00;;;7.90
45850;BMP180;10739;52.198;20.908;2022-12-29T06:34:43;99843.00;;;7.90
45850;BMP180;10739;52.198;20.908;2022-12-29T06:37:30;99844.00;;;8.40
45850;BMP180;10739;52.198;20.908;2022-12-29T06:40:17;99846.00;;;8.20
45850;BMP180;10739;52.198;20.908;2022-12-29T06:43:03;99845.00;;;8.00
45850;BMP180;10739;52.198;20.908;2022-12-29T06:45:50;99850.00;;;8.30
45850;BMP180;10739;52.198;20.908;2022-12-29T06:48:36;99850.00;;;7.80
45850;BMP180;10739;52.198;20.908;2022-12-29T06:51:22;99853.00;;;8.20
45850;BMP180;10739;52.198;20.908;2022-12-29T06:54:09;99849.00;;;8.10
45850;BMP180;10739;52.198;20.908;2022-12-29T06:56:56;99847.00;;;8.20
45850;BMP180;10739;52.198;20.908;2022-12-29T06:59:42;99840.00;;;8.10
45850;BMP180;10739;52.198;20.908;2022-12-29T07:02:29;99837.00;;;7.80
45850;BMP180;10739;52.198;20.908;2022-12-29T07:05:15;99827.00;;;8.20
45850;BMP180;10739;52.198;20.908;2022-12-29T07:08:02;99833.00;;;8.50
45850;BMP180;10739;52.198;20.908;2022-12-29T07:10:48;99829.00;;;8.50
45850;BMP180;10739;52.198;20.908;2022-12-29T07:13:14;99820.00;;;8.20
45850;BMP180;10739;52.198;20.908;2022-12-29T07:15:41;99828.00;;;8.30
45850;BMP180;10739;52.198;20.908;2022-12-29T07:18:07;99831.00;;;8.30
45850;BMP180;10739;52.198;20.908;2022-12-29T07:20:34;99821.00;;;8.60
45850;BMP180;10739;52.198;20.908;2022-12-29T07:23:00;99826.00;;;8.30
45850;BMP180;10739;52.198;20.908;2022-12-29T07:25:26;99823.00;;;8.00
45850;BMP180;10739;52.198;20.908;2022-12-29T07:27:56;99834.00;;;8.70
45850;BMP180;10739;52.198;20.908;2022-12-29T07:30:22;99829.00;;;8.50
45850;BMP180;10739;52.198;20.908;2022-12-29T07:32:49;99831.00;;;8.60
45850;BMP180;10739;52.198;20.908;2022-12-29T07:35:15;99835.00;;;8.50
45850;BMP180;10739;52.198;20.908;2022-12-29T07:37:41;99825.00;;;8.50
45850;BMP180;10739;52.198;20.908;2022-12-29T07:40:10;99829.00;;;8.50
45850;BMP180;10739;52.198;20.908;2022-12-29T07:42:39;99824.00;;;8.60
45850;BMP180;10739;52.198;20.908;2022-12-29T07:45:06;99830.00;;;8.50
45850;BMP180;10739;52.198;20.908;2022-12-29T07:47:33;99828.00;;;8.90
45850;BMP180;10739;52.198;20.908;2022-12-29T07:49:59;99819.00;;;8.60
45850;BMP180;10739;52.198;20.908;2022-12-29T07:52:25;99824.00;;;8.90
45850;BMP180;10739;52.198;20.908;2022-12-29T07:54:52;99819.00;;;8.70
45850;BMP180;10739;52.198;20.908;2022-12-29T07:57:18;99817.00;;;8.80
45850;BMP180;10739;52.198;20.908;2022-12-29T07:59:44;99820.00;;;8.90
45850;BMP180;10739;52.198;20.908;2022-12-29T08:02:11;99806.00;;;9.20
45850;BMP180;10739;52.198;20.908;2022-12-29T08:04:37;99812.00;;;9.30
45850;BMP180;10739;52.198;20.908;2022-12-29T08:07:04;99810.00;;;9.00
45850;BMP180;10739;52.198;20.908;2022-12-29T08:09:31;99806.00;;;8.90
45850;BMP180;10739;52.198;20.908;2022-12-29T08:11:57;99811.00;;;8.70
45850;BMP180;10739;52.198;20.908;2022-12-29T08:14:23;99806.00;;;8.70
45850;BMP180;10739;52.198;20.908;2022-12-29T08:16:50;99801.00;;;9.00
45850;BMP180;10739;52.198;20.908;2022-12-29T08:19:16;99802.00;;;8.80
45850;BMP180;10739;52.198;20.908;2022-12-29T08:21:43;99803.00;;;8.80
45850;BMP180;10739;52.198;20.908;2022-12-29T08:24:09;99793.00;;;8.80
45850;BMP180;10739;52.198;20.908;2022-12-29T08:26:38;99801.00;;;8.90
45850;BMP180;10739;52.198;20.908;2022-12-29T08:29:08;99794.00;;;9.20
45850;BMP180;10739;52.198;20.908;2022-12-29T08:31:34;99803.00;;;9.20
45850;BMP180;10739;52.198;20.908;2022-12-29T08:34:00;99812.00;;;8.90
45850;BMP180;10739;52.198;20.908;2022-12-29T08:36:30;99812.00;;;9.10
45850;BMP180;10739;52.198;20.908;2022-12-29T08:38:57;99820.00;;;8.80
45850;BMP180;10739;52.198;20.908;2022-12-29T08:41:28;99827.00;;;9.30
45850;BMP180;10739;52.198;20.908;2022-12-29T08:44:00;99829.00;;;9.30
45850;BMP180;10739;52.198;20.908;2022-12-29T08:46:26;99831.00;;;9.60
45850;BMP180;10739;52.198;20.908;2022-12-29T08:48:54;99836.00;;;9.60
45850;BMP180;10739;52.198;20.908;2022-12-29T08:51:21;99835.00;;;9.40
45850;BMP180;10739;52.198;20.908;2022-12-29T08:53:48;99826.00;;;9.50
45850;BMP180;10739;52.198;20.908;2022-12-29T08:56:15;99825.00;;;9.90
45850;BMP180;10739;52.198;20.908;2022-12-29T08:58:43;99813.00;;;9.20
45850;BMP180;10739;52.198;20.908;2022-12-29T09:01:10;99824.00;;;9.50
45850;BMP180;10739;52.198;20.908;2022-12-29T09:03:36;99829.00;;;9.40
45850;BMP180;10739;52.198;20.908;2022-12-29T09:06:03;99830.00;;;9.50
45850;BMP180;10739;52.198;20.908;2022-12-29T09:08:30;99821.00;;;9.60
45850;BMP180;10739;52.198;20.908;2022-12-29T09:11:12;99810.00;;;9.70
45850;BMP180;10739;52.198;20.908;2022-12-29T09:13:39;99807.00;;;9.60
45850;BMP180;10739;52.198;20.908;2022-12-29T09:16:08;99817.00;;;10.10
45850;BMP180;10739;52.198;20.908;2022-12-29T09:18:35;99811.00;;;9.80
45850;BMP180;10739;52.198;20.908;2022-12-29T09:21:04;99801.00;;;9.70
45850;BMP180;10739;52.198;20.908;2022-12-29T09:23:32;99807.00;;;9.70
45850;BMP180;10739;52.198;20.908;2022-12-29T09:25:59;99798.00;;;9.90
45850;BMP180;10739;52.198;20.908;2022-12-29T09:28:26;99811.00;;;9.70
45850;BMP180;10739;52.198;20.908;2022-12-29T09:30:52;99808.00;;;10.20
45850;BMP180;10739;52.198;20.908;2022-12-29T09:33:18;99800.00;;;10.10
45850;BMP180;10739;52.198;20.908;2022-12-29T09:35:52;99803.00;;;10.20
45850;BMP180;10739;52.198;20.908;2022-12-29T09:38:19;99806.00;;;9.80
45850;BMP180;10739;52.198;20.908;2022-12-29T09:40:52;99805.00;;;10.30
45850;BMP180;10739;52.198;20.908;2022-12-29T09:51:35;99789.00;;;10.10
45850;BMP180;10739;52.198;20.908;2022-12-29T09:56:56;99785.00;;;10.10
45850;BMP180;10739;52.198;20.908;2022-12-29T09:59:41;99786.00;;;10.10
45850;BMP180;10739;52.198;20.908;2022-12-29T10:02:39;99786.00;;;10.10
45850;BMP180;10739;52.198;20.908;2022-12-29T10:05:32;99784.00;;;9.90
45850;BMP180;10739;52.198;20.908;2022-12-29T10:11:52;99776.00;;;10.20
45850;BMP180;10739;52.198;20.908;2022-12-29T10:17:48;99771.00;;;9.90
45850;BMP180;10739;52.198;20.908;2022-12-29T10:25:58;99768.00;;;10.50
45850;BMP180;10739;52.198;20.908;2022-12-29T10:28:43;99757.00;;;10.10
45850;BMP180;10739;52.198;20.908;2022-12-29T10:31:24;99759.00;;;10.10
45850;BMP180;10739;52.198;20.908;2022-12-29T10:34:10;99758.00;;;10.30
45850;BMP180;10739;52.198;20.908;2022-12-29T10:36:49;99753.00;;;10.10
45850;BMP180;10739;52.198;20.908;2022-12-29T10:39:41;99746.00;;;10.00
45850;BMP180;10739;52.198;20.908;2022-12-29T10:42:37;99748.00;;;10.40
45850;BMP180;10739;52.198;20.908;2022-12-29T10:45:13;99750.00;;;10.20
45850;BMP180;10739;52.198;20.908;2022-12-29T10:48:09;99735.00;;;10.70
45850;BMP180;10739;52.198;20.908;2022-12-29T10:50:37;99744.00;;;10.60
45850;BMP180;10739;52.198;20.908;2022-12-29T10:53:21;99735.00;;;10.40
45850;BMP180;10739;52.198;20.908;2022-12-29T10:55:50;99740.00;;;10.50
45850;BMP180;10739;52.198;20.908;2022-12-29T10:58:18;99735.00;;;10.70
45850;BMP180;10739;52.198;20.908;2022-12-29T11:00:52;99739.00;;;10.70
45850;BMP180;10739;52.198;20.908;2022-12-29T11:06:27;99734.00;;;10.90
45850;BMP180;10739;52.198;20.908;2022-12-29T11:08:59;99741.00;;;11.00
45850;BMP180;10739;52.198;20.908;2022-12-29T11:11:35;99742.00;;;11.00
45850;BMP180;10739;52.198;20.908;2022-12-29T11:14:25;99744.00;;;10.90
45850;BMP180;10739;52.198;20.908;2022-12-29T11:17:04;99737.00;;;11.30
45850;BMP180;10739;52.198;20.908;2022-12-29T11:19:33;99733.00;;;11.20
45850;BMP180;10739;52.198;20.908;2022-12-29T11:22:28;99726.00;;;11.00
45850;BMP180;10739;52.198;20.908;2022-12-29T11:25:06;99734.00;;;10.90
45850;BMP180;10739;52.198;20.908;2022-12-29T11:27:37;99727.00;;;10.90
45850;BMP180;10739;52.198;20.908;2022-12-29T11:30:25;99735.00;;;10.90
45850;BMP180;10739;52.198;20.908;2022-12-29T11:32:54;99743.00;;;10.90
45850;BMP180;10739;52.198;20.908;2022-12-29T11:35:41;99745.00;;;11.20
45850;BMP180;10739;52.198;20.908;2022-12-29T11:38:23;99746.00;;;11.60
45850;BMP180;10739;52.198;20.908;2022-12-29T11:40:52;99738.00;;;11.20
45850;BMP180;10739;52.198;20.908;2022-12-29T11:43:41;99730.00;;;11.40
45850;BMP180;10739;52.198;20.908;2022-12-29T11:46:22;99730.00;;;11.20
45850;BMP180;10739;52.198;20.908;2022-12-29T11:48:50;99734.00;;;11.40
45850;BMP180;10739;52.198;20.908;2022-12-29T11:51:37;99730.00;;;11.40
45850;BMP180;10739;52.198;20.908;2022-12-29T11:54:05;99724.00;;;11.30
45850;BMP180;10739;52.198;20.908;2022-12-29T11:56:39;99731.00;;;11.30
45850;BMP180;10739;52.198;20.908;2022-12-29T11:59:39;99728.00;;;11.70
45850;BMP180;10739;52.198;20.908;2022-12-29T12:02:32;99730.00;;;11.40
45850;BMP180;10739;52.198;20.908;2022-12-29T12:05:19;99720.00;;;11.50
45850;BMP180;10739;52.198;20.908;2022-12-29T12:08:01;99724.00;;;11.10
45850;BMP180;10739;52.198;20.908;2022-12-29T12:14:26;99729.00;;;11.70
45850;BMP180;10739;52.198;20.908;2022-12-29T12:17:04;99719.00;;;11.90
45850;BMP180;10739;52.198;20.908;2022-12-29T12:20:00;99721.00;;;11.60
45850;BMP180;10739;52.198;20.908;2022-12-29T12:22:43;99714.00;;;11.60
45850;BMP180;10739;52.198;20.908;2022-12-29T12:25:24;99719.00;;;11.70
45850;BMP180;10739;52.198;20.908;2022-12-29T12:28:04;99720.00;;;11.90
45850;BMP180;10739;52.198;20.908;2022-12-29T12:30:45;99709.00;;;11.90
45850;BMP180;10739;52.198;20.908;2022-12-29T12:33:39;99715.00;;;11.90
45850;BMP180;10739;52.198;20.908;2022-12-29T12:36:41;99707.00;;;11.90
45850;BMP180;10739;52.198;20.908;2022-12-29T12:46:13;99687.00;;;12.00
45850;BMP180;10739;52.198;20.908;2022-12-29T12:55:28;99688.00;;;11.90
45850;BMP180;10739;52.198;20.908;2022-12-29T13:16:10;99695.00;;;12.30
45850;BMP180;10739;52.198;20.908;2022-12-29T13:24:47;99697.00;;;12.20
45850;BMP180;10739;52.198;20.908;2022-12-29T13:30:19;99705.00;;;11.80
45850;BMP180;10739;52.198;20.908;2022-12-29T13:39:05;99703.00;;;12.10
45850;BMP180;10739;52.198;20.908;2022-12-29T13:41:44;99703.00;;;11.90
45850;BMP180;10739;52.198;20.908;2022-12-29T13:44:18;99714.00;;;12.00
45850;BMP180;10739;52.198;20.908;2022-12-29T13:46:48;99713.00;;;12.00
45850;BMP180;10739;52.198;20.908;2022-12-29T13:49:18;99709.00;;;12.60
45850;BMP180;10739;52.198;20.908;2022-12-29T13:52:12;99711.00;;;12.20
45850;BMP180;10739;52.198;20.908;2022-12-29T13:55:18;99708.00;;;12.50
45850;BMP180;10739;52.198;20.908;2022-12-29T14:01:18;99726.00;;;12.10
45850;BMP180;10739;52.198;20.908;2022-12-29T14:03:56;99727.00;;;11.90
45850;BMP180;10739;52.198;20.908;2022-12-29T14:09:05;99724.00;;;11.80
45850;BMP180;10739;52.198;20.908;2022-12-29T14:11:38;99722.00;;;12.10
45850;BMP180;10739;52.198;20.908;2022-12-29T14:14:25;99725.00;;;12.30
45850;BMP180;10739;52.198;20.908;2022-12-29T14:16:54;99726.00;;;11.90
45850;BMP180;10739;52.198;20.908;2022-12-29T14:19:30;99722.00;;;12.10
45850;BMP180;10739;52.198;20.908;2022-12-29T14:22:03;99722.00;;;11.90
45850;BMP180;10739;52.198;20.908;2022-12-29T14:29:43;99705.00;;;11.90
45850;BMP180;10739;52.198;20.908;2022-12-29T14:34:56;99705.00;;;11.90
45850;BMP180;10739;52.198;20.908;2022-12-29T14:37:30;99710.00;;;12.30
45850;BMP180;10739;52.198;20.908;2022-12-29T14:40:25;99688.00;;;11.70
45850;BMP180;10739;52.198;20.908;2022-12-29T14:42:56;99703.00;;;12.20
45850;BMP180;10739;52.198;20.908;2022-12-29T14:45:29;99698.00;;;12.00
45850;BMP180;10739;52.198;20.908;2022-12-29T14:47:59;99713.00;;;11.80
45850;BMP180;10739;52.198;20.908;2022-12-29T14:50:45;99710.00;;;12.20
45850;BMP180;10739;52.198;20.908;2022-12-29T14:53:44;99715.00;;;12.10
45850;BMP180;10739;52.198;20.908;2022-12-29T14:56:15;99706.00;;;12.30
45850;BMP180;10739;52.198;20.908;2022-12-29T14:59:02;99720.00;;;12.10
45850;BMP180;10739;52.198;20.908;2022-12-29T15:04:13;99723.00;;;12.20
45850;BMP180;10739;52.198;20.908;2022-12-29T15:06:41;99717.00;;;12.20
45850;BMP180;10739;52.198;20.908;2022-12-29T15:09:27;99720.00;;;11.90
45850;BMP180;10739;52.198;20.908;2022-12-29T15:12:06;99715.00;;;12.30
45850;BMP180;10739;52.198;20.908;2022-12-29T15:14:52;99723.00;;;12.40
45850;BMP180;10739;52.198;20.908;2022-12-29T15:17:32;99721.00;;;12.40
45850;BMP180;10739;52.198;20.908;2022-12-29T15:20:21;99725.00;;;12.00
45850;BMP180;10739;52.198;20.908;2022-12-29T15:23:03;99728.00;;;12.00
45850;BMP180;10739;52.198;20.908;2022-12-29T15:25:31;99727.00;;;12.00
45850;BMP180;10739;52.198;20.908;2022-12-29T15:28:04;99722.00;;;11.90
45850;BMP180;10739;52.198;20.908;2022-12-29T15:30:32;99716.00;;;12.00
45850;BMP180;10739;52.198;20.908;2022-12-29T15:32:59;99716.00;;;11.80
45850;BMP180;10739;52.198;20.908;2022-12-29T15:35:28;99713.00;;;12.00
45850;BMP180;10739;52.198;20.908;2022-12-29T15:37:58;99714.00;;;12.00
45850;BMP180;10739;52.198;20.908;2022-12-29T15:40:28;99724.00;;;11.60
45850;BMP180;10739;52.198;20.908;2022-12-29T15:45:34;99728.00;;;12.10
45850;BMP180;10739;52.198;20.908;2022-12-29T15:48:03;99725.00;;;11.70
45850;BMP180;10739;52.198;20.908;2022-12-29T15:50:33;99717.00;;;11.60
45850;BMP180;10739;52.198;20.908;2022-12-29T15:53:01;99720.00;;;11.70
45850;BMP180;10739;52.198;20.908;2022-12-29T15:55:41;99715.00;;;11.60
45850;BMP180;10739;52.198;20.908;2022-12-29T15:58:28;99719.00;;;12.00
45850;BMP180;10739;52.198;20.908;2022-12-29T16:01:01;99721.00;;;11.60
45850;BMP180;10739;52.198;20.908;2022-12-29T16:03:33;99716.00;;;11.70
45850;BMP180;10739;52.198;20.908;2022-12-29T16:06:39;99720.00;;;11.40
45850;BMP180;10739;52.198;20.908;2022-12-29T16:09:33;99719.00;;;11.50
45850;BMP180;10739;52.198;20.908;2022-12-29T16:12:13;99718.00;;;11.50
45850;BMP180;10739;52.198;20.908;2022-12-29T16:14:48;99722.00;;;11.50
45850;BMP180;10739;52.198;20.908;2022-12-29T16:17:21;99723.00;;;11.70
45850;BMP180;10739;52.198;20.908;2022-12-29T16:19:52;99734.00;;;11.50
45850;BMP180;10739;52.198;20.908;2022-12-29T16:22:39;99727.00;;;11.40
45850;BMP180;10739;52.198;20.908;2022-12-29T16:27:43;99718.00;;;11.30
45850;BMP180;10739;52.198;20.908;2022-12-29T16:30:31;99727.00;;;11.30
45850;BMP180;10739;52.198;20.908;2022-12-29T16:33:04;99723.00;;;11.10
45850;BMP180;10739;52.198;20.908;2022-12-29T16:35:47;99733.00;;;11.50
45850;BMP180;10739;52.198;20.908;2022-12-29T16:38:33;99738.00;;;11.20
45850;BMP180;10739;52.198;20.908;2022-12-29T16:41:02;99734.00;;;11.50
45850;BMP180;10739;52.198;20.908;2022-12-29T16:43:35;99738.00;;;11.60
45850;BMP180;10739;52.198;20.908;2022-12-29T16:46:37;99733.00;;;11.70
45850;BMP180;10739;52.198;20.908;2022-12-29T16:49:16;99745.00;;;11.40
45850;BMP180;10739;52.198;20.908;2022-12-29T16:51:43;99737.00;;;11.60
45850;BMP180;10739;52.198;20.908;2022-12-29T16:54:32;99744.00;;;11.60
45850;BMP180;10739;52.198;20.908;2022-12-29T16:57:00;99744.00;;;11.40
45850;BMP180;10739;52.198;20.908;2022-12-29T16:59:40;99743.00;;;11.50
45850;BMP180;10739;52.198;20.908;2022-12-29T17:02:16;99737.00;;;11.80
45850;BMP180;10739;52.198;20.908;2022-12-29T17:04:45;99744.00;;;11.60
45850;BMP180;10739;52.198;20.908;2022-12-29T17:07:24;99747.00;;;12.20
45850;BMP180;10739;52.198;20.908;2022-12-29T17:09:51;99743.00;;;12.20
45850;BMP180;10739;52.198;20.908;2022-12-29T17:12:26;99744.00;;;11.60
45850;BMP180;10739;52.198;20.908;2022-12-29T17:15:00;99737.00;;;12.10
45850;BMP180;10739;52.198;20.908;2022-12-29T17:17:35;99748.00;;;12.00
45850;BMP180;10739;52.198;20.908;2022-12-29T17:20:21;99737.00;;;11.50
45850;BMP180;10739;52.198;20.908;2022-12-29T17:22:49;99742.00;;;12.10
45850;BMP180;10739;52.198;20.908;2022-12-29T17:25:22;99755.00;;;11.90
45850;BMP180;10739;52.198;20.908;2022-12-29T17:28:00;99744.00;;;11.80
45850;BMP180;10739;52.198;20.908;2022-12-29T17:30:29;99738.00;;;11.60
45850;BMP180;10739;52.198;20.908;2022-12-29T17:33:07;99733.00;;;11.80
45850;BMP180;10739;52.198;20.908;2022-12-29T17:35:35;99741.00;;;12.00